Time;durP1;ratioP1;P1;durP2;ratioP2;P2;SDS_P1;SDS_P2;PMS_P1;PMS_P2;Temp;Humidity;BMP_temperature;BMP_pressure;BME280_temperature;BME280_humidity;BME280_pressure;Samples;Min_cycle;Max_cycle;Signal;HPM_P1;HPM_P2
2021/12/26 00:01:21;;;;;;;4.53;1.90;;;16.80;51.90;17.60;99967.00;;;;4949881;28;20189;-40
2021/12/26 00:03:47;;;;;;;2.20;2.00;;;16.80;52.00;17.60;99968.00;;;;4949725;28;20181;-39
2021/12/26 00:06:25;;;;;;;2.83;1.83;;;16.80;52.30;17.50;99969.00;;;;4949315;28;20197;-39
2021/12/26 00:08:51;;;;;;;2.10;1.90;;;16.80;52.50;17.50;99969.00;;;;4949591;28;20284;-39
2021/12/26 00:11:17;;;;;;;3.63;1.70;;;16.70;52.50;17.50;99971.00;;;;4949274;28;20190;-39
2021/12/26 00:13:42;;;;;;;1.97;1.77;;;16.70;52.60;17.50;99894.00;;;;4949847;28;20565;-41
2021/12/26 00:16:08;;;;;;;2.10;1.90;;;16.70;52.70;17.50;99965.00;;;;4952394;28;20197;-40
2021/12/26 00:18:35;;;;;;;2.53;1.90;;;16.70;52.80;17.50;99966.00;;;;4952688;28;20276;-40
2021/12/26 00:21:00;;;;;;;2.03;1.83;;;16.60;52.80;17.40;99965.00;;;;4949179;28;20224;-40
2021/12/26 00:23:26;;;;;;;2.57;1.90;;;16.60;53.10;17.40;99956.00;;;;4949155;28;20261;-40
2021/12/26 00:25:52;;;;;;;1.90;1.80;;;16.60;53.00;17.40;99960.00;;;;4949281;28;20284;-40
2021/12/26 00:28:18;;;;;;;1.87;1.77;;;16.60;53.00;17.40;99954.00;;;;4948890;28;20177;-40
2021/12/26 00:30:44;;;;;;;2.73;1.87;;;16.60;52.90;17.40;99954.00;;;;4949145;28;20209;-40
2021/12/26 00:33:10;;;;;;;2.13;1.93;;;16.60;53.10;17.40;99958.00;;;;4949856;28;20174;-40
2021/12/26 00:35:35;;;;;;;2.27;2.07;;;16.50;53.10;17.30;99947.00;;;;4948521;28;20536;-41
2021/12/26 00:38:01;;;;;;;2.13;1.80;;;16.50;53.10;17.30;99950.00;;;;4948607;28;20180;-40
2021/12/26 00:40:27;;;;;;;1.93;1.80;;;16.50;53.10;17.30;99946.00;;;;4949082;28;20186;-40
2021/12/26 00:42:53;;;;;;;1.70;1.60;;;16.40;53.10;17.30;99953.00;;;;4949068;28;20205;-40
2021/12/26 00:45:19;;;;;;;2.00;1.80;;;16.40;53.20;17.30;99951.00;;;;4947572;29;20207;-41
2021/12/26 00:47:45;;;;;;;2.20;1.90;;;16.40;53.20;17.30;99943.00;;;;4948471;28;20197;-40
2021/12/26 00:50:13;;;;;;;2.27;1.70;;;16.40;53.20;17.20;99944.00;;;;4948813;28;20237;-41
2021/12/26 00:52:38;;;;;;;2.67;1.80;;;16.40;53.30;17.30;99935.00;;;;4948917;28;20174;-40
2021/12/26 00:55:06;;;;;;;1.80;1.70;;;16.30;53.20;17.20;99930.00;;;;4948833;28;20237;-40
2021/12/26 00:57:32;;;;;;;2.13;1.93;;;16.30;53.20;17.20;99938.00;;;;4948419;28;20177;-40
2021/12/26 00:59:58;;;;;;;1.80;1.70;;;16.30;53.30;17.20;99932.00;;;;4948645;28;20209;-40
2021/12/26 01:02:24;;;;;;;1.70;1.60;;;16.30;53.30;17.10;99938.00;;;;4948607;28;20186;-40
2021/12/26 01:04:49;;;;;;;1.80;1.70;;;16.20;53.50;17.10;99933.00;;;;4947245;28;20202;-40
2021/12/26 01:07:37;;;;;;;1.70;1.60;;;16.30;53.40;17.10;99924.00;;;;4948255;28;20201;-40
2021/12/26 01:10:01;;;;;;;1.90;1.80;;;16.20;53.40;17.10;99922.00;;;;4948317;28;20309;-40
2021/12/26 01:12:27;;;;;;;1.80;1.70;;;16.20;53.30;17.10;99930.00;;;;4948279;28;20240;-40
2021/12/26 01:14:59;;;;;;;1.93;1.80;;;16.20;53.30;17.10;99934.00;;;;4948860;28;20621;-40
2021/12/26 01:17:26;;;;;;;1.70;1.60;;;16.20;53.50;16.80;99930.00;;;;4946852;29;20787;-41
2021/12/26 01:19:53;;;;;;;1.70;1.60;;;16.20;53.40;17.00;99923.00;;;;4948935;28;20181;-40
2021/12/26 01:22:19;;;;;;;1.80;1.70;;;16.20;53.60;17.00;99929.00;;;;4948688;28;20212;-40
2021/12/26 01:24:45;;;;;;;1.70;1.60;;;16.10;53.50;17.00;99936.00;;;;4948044;28;20190;-40
2021/12/26 01:27:11;;;;;;;1.90;1.80;;;16.10;53.50;17.00;99929.00;;;;4947671;28;20170;-40
2021/12/26 01:29:37;;;;;;;1.63;1.53;;;16.10;53.50;17.00;99930.00;;;;4947586;28;20201;-40
2021/12/26 01:32:04;;;;;;;1.80;1.70;;;16.10;53.50;17.00;99926.00;;;;4947614;28;20186;-40
2021/12/26 01:34:30;;;;;;;2.07;1.80;;;16.10;53.50;17.00;99923.00;;;;4947693;28;20162;-40
2021/12/26 01:36:56;;;;;;;1.70;1.60;;;16.10;53.50;16.90;99929.00;;;;4947620;28;20177;-40
2021/12/26 01:39:23;;;;;;;1.53;1.43;;;16.10;53.50;16.90;99934.00;;;;4947590;28;20184;-40
2021/12/26 01:41:49;;;;;;;1.80;1.70;;;16.10;53.50;16.90;99931.00;;;;4947583;28;20662;-40
2021/12/26 01:44:15;;;;;;;1.70;1.60;;;16.00;53.40;16.90;99937.00;;;;4947718;28;20262;-40
2021/12/26 01:46:42;;;;;;;1.57;1.47;;;16.00;53.30;16.90;99933.00;;;;4947439;28;20202;-40
2021/12/26 01:49:14;;;;;;;1.67;1.57;;;16.00;53.40;16.90;99940.00;;;;4947297;28;20189;-40
2021/12/26 01:51:40;;;;;;;1.70;1.60;;;16.00;53.40;16.90;99927.00;;;;4947347;28;20158;-40
2021/12/26 01:54:08;;;;;;;1.80;1.70;;;15.90;53.40;16.90;99937.00;;;;4947605;28;20166;-39
2021/12/26 01:56:35;;;;;;;1.70;1.60;;;15.90;53.50;16.80;99929.00;;;;4947462;28;20189;-40
2021/12/26 01:59:00;;;;;;;1.73;1.63;;;15.90;53.50;16.80;99937.00;;;;4947330;28;20534;-41
2021/12/26 02:01:26;;;;;;;1.80;1.70;;;15.80;53.50;16.80;99931.00;;;;4947096;28;20181;-41
2021/12/26 02:03:52;;;;;;;1.80;1.60;;;15.80;53.50;16.80;99936.00;;;;4947540;28;20193;-40
2021/12/26 02:06:18;;;;;;;1.60;1.50;;;15.90;53.50;16.80;99933.00;;;;4947334;28;20190;-40
2021/12/26 02:08:43;;;;;;;2.17;1.80;;;15.90;53.50;16.80;99932.00;;;;4947105;28;20178;-40
2021/12/26 02:11:09;;;;;;;1.70;1.60;;;15.80;53.50;16.80;99929.00;;;;4947299;28;20196;-40
2021/12/26 02:13:37;;;;;;;1.80;1.70;;;15.80;53.60;16.70;99925.00;;;;4947136;28;20181;-40
2021/12/26 02:16:05;;;;;;;1.77;1.67;;;15.80;53.50;16.70;99916.00;;;;4947392;28;20699;-41
2021/12/26 02:18:31;;;;;;;1.80;1.70;;;15.70;53.40;16.70;99922.00;;;;4951151;28;20181;-40
2021/12/26 02:23:36;;;;;;;1.60;1.50;;;15.70;53.50;16.70;99921.00;;;;4951353;28;20173;-40
2021/12/26 02:28:47;;;;;;;1.50;1.40;;;15.70;53.50;16.70;99911.00;;;;4951084;28;20158;-40
2021/12/26 02:31:13;;;;;;;1.70;1.60;;;15.70;53.40;16.70;99917.00;;;;4950740;28;20256;-41
2021/12/26 02:33:39;;;;;;;2.03;1.80;;;15.60;53.40;16.70;99931.00;;;;4950623;28;20545;-40
2021/12/26 02:36:05;;;;;;;1.70;1.60;;;15.60;53.50;16.70;99920.00;;;;4950406;28;20256;-40
2021/12/26 02:38:31;;;;;;;1.80;1.70;;;15.60;53.50;16.70;99913.00;;;;4950253;28;20230;-40
2021/12/26 02:40:58;;;;;;;1.70;1.60;;;15.60;53.70;16.70;99914.00;;;;4950650;28;20260;-40
2021/12/26 02:43:25;;;;;;;1.73;1.63;;;15.60;53.60;16.60;99917.00;;;;4950486;28;20161;-40
2021/12/26 02:45:51;;;;;;;1.60;1.50;;;15.60;53.60;16.60;99912.00;;;;4949995;28;20197;-40
2021/12/26 02:48:17;;;;;;;1.73;1.63;;;15.50;53.50;16.60;99909.00;;;;4950173;28;20185;-40
2021/12/26 02:50:44;;;;;;;1.70;1.60;;;15.50;53.50;16.60;99916.00;;;;4948863;28;20194;-39
2021/12/26 02:53:13;;;;;;;1.70;1.60;;;15.50;53.60;16.60;99918.00;;;;4950603;28;20204;-40
2021/12/26 02:55:39;;;;;;;1.80;1.70;;;15.40;53.70;16.60;99907.00;;;;4950264;28;20189;-40
2021/12/26 02:58:07;;;;;;;1.80;1.70;;;15.50;53.70;16.50;99910.00;;;;4950300;28;20185;-39
2021/12/26 03:00:42;;;;;;;1.80;1.70;;;15.40;53.70;16.50;99911.00;;;;4949672;29;20277;-40
2021/12/26 03:03:08;;;;;;;1.60;1.50;;;15.40;53.60;16.50;99902.00;;;;4950173;28;20161;-40
2021/12/26 03:05:37;;;;;;;2.00;1.90;;;15.40;53.60;16.50;99899.00;;;;4950100;28;20205;-40
2021/12/26 03:08:04;;;;;;;1.90;1.80;;;15.40;53.70;16.50;99906.00;;;;4949812;28;20829;-41
2021/12/26 03:10:30;;;;;;;1.70;1.60;;;15.30;53.70;16.50;99912.00;;;;4949925;28;20198;-40
2021/12/26 03:13:01;;;;;;;1.60;1.50;;;15.30;53.70;16.40;99905.00;;;;4950096;28;20170;-40
2021/12/26 03:15:28;;;;;;;1.80;1.70;;;15.30;53.90;16.40;99912.00;;;;4949870;28;20209;-40
2021/12/26 03:17:54;;;;;;;1.70;1.60;;;15.30;53.80;16.40;99910.00;;;;4949713;28;20166;-40
2021/12/26 03:20:24;;;;;;;1.70;1.60;;;15.30;53.60;16.40;99912.00;;;;4948670;29;20186;-40
2021/12/26 03:22:50;;;;;;;1.80;1.70;;;15.30;53.70;16.40;99914.00;;;;4950187;28;20533;-40
2021/12/26 03:25:21;;;;;;;1.73;1.63;;;15.30;53.80;16.40;99903.00;;;;4949949;28;20251;-40
2021/12/26 03:27:47;;;;;;;1.60;1.50;;;15.20;53.70;16.30;99907.00;;;;4948388;28;20280;-40
2021/12/26 03:30:15;;;;;;;1.80;1.70;;;15.20;53.90;16.30;99909.00;;;;4949690;28;20822;-41
2021/12/26 03:32:41;;;;;;;1.50;1.40;;;15.10;53.80;16.30;99913.00;;;;4949849;28;20256;-40
2021/12/26 03:35:07;;;;;;;1.90;1.80;;;15.20;53.90;16.30;99910.00;;;;4949676;28;20217;-40
2021/12/26 03:37:33;;;;;;;1.60;1.50;;;15.20;54.30;16.30;99895.00;;;;4949366;28;20216;-40
2021/12/26 03:39:59;;;;;;;1.70;1.60;;;15.10;54.30;16.30;99896.00;;;;4949255;28;20174;-40
2021/12/26 03:42:24;;;;;;;1.70;1.60;;;15.10;54.30;16.30;99898.00;;;;4949603;28;20189;-39
2021/12/26 03:44:50;;;;;;;1.77;1.67;;;15.10;54.30;16.30;99893.00;;;;4949487;28;20206;-39
2021/12/26 03:47:17;;;;;;;1.70;1.60;;;15.10;54.20;16.20;99891.00;;;;4948949;28;20189;-40
2021/12/26 03:49:42;;;;;;;1.60;1.50;;;15.10;54.30;16.20;99898.00;;;;4949502;28;20204;-39
2021/12/26 03:52:08;;;;;;;1.70;1.60;;;15.10;54.20;16.20;99883.00;;;;4949512;28;20185;-41
2021/12/26 03:54:34;;;;;;;1.60;1.50;;;15.00;54.20;16.20;99892.00;;;;4952545;28;20178;-40
2021/12/26 03:57:00;;;;;;;1.60;1.50;;;15.00;54.20;16.20;99894.00;;;;4949567;28;20162;-41
2021/12/26 03:59:27;;;;;;;1.47;1.40;;;15.00;54.20;16.20;99882.00;;;;4949194;28;20178;-40
2021/12/26 04:01:56;;;;;;;1.70;1.60;;;15.00;54.30;16.20;99889.00;;;;4948718;28;20177;-39
2021/12/26 04:04:22;;;;;;;1.70;1.60;;;14.90;54.40;16.20;99886.00;;;;4949080;28;20181;-40
2021/12/26 04:06:48;;;;;;;1.80;1.70;;;14.90;54.40;16.10;99881.00;;;;4948664;28;20174;-40
2021/12/26 04:09:14;;;;;;;1.80;1.70;;;14.90;54.20;16.10;99880.00;;;;4948999;28;20204;-41
2021/12/26 04:11:42;;;;;;;1.70;1.60;;;14.90;54.30;16.10;99874.00;;;;4948818;28;20176;-39
2021/12/26 04:14:08;;;;;;;1.80;1.70;;;14.90;54.30;16.10;99871.00;;;;4948824;28;20174;-39
2021/12/26 04:16:34;;;;;;;1.63;1.53;;;14.90;54.50;16.10;99878.00;;;;4948361;28;20256;-40
2021/12/26 04:18:59;;;;;;;2.17;1.70;;;14.90;54.30;16.10;99876.00;;;;4948569;28;20174;-40
2021/12/26 04:21:25;;;;;;;1.80;1.60;;;14.80;54.70;16.10;99891.00;;;;4947652;29;20190;-39
2021/12/26 04:23:51;;;;;;;1.73;1.63;;;14.80;54.60;16.00;99886.00;;;;4948820;28;20177;-41
2021/12/26 04:26:17;;;;;;;2.53;1.70;;;14.80;54.40;16.00;99883.00;;;;4948652;28;20314;-39
2021/12/26 04:28:42;;;;;;;4.63;1.90;;;14.80;54.60;16.00;99894.00;;;;4948572;28;20173;-39
2021/12/26 04:31:08;;;;;;;1.70;1.57;;;14.70;54.70;16.00;99879.00;;;;4948456;28;20174;-40
2021/12/26 04:33:34;;;;;;;2.47;1.80;;;14.70;54.80;16.00;99880.00;;;;4958121;28;20599;-41
2021/12/26 04:36:00;;;;;;;1.80;1.70;;;14.80;54.60;16.00;99879.00;;;;4967741;28;20193;-40
2021/12/26 04:38:25;;;;;;;1.83;1.70;;;14.80;54.60;15.90;99884.00;;;;4968152;28;20256;-40
2021/12/26 04:40:51;;;;;;;2.67;1.90;;;14.80;54.60;15.90;99885.00;;;;4967560;28;20200;-40
2021/12/26 04:43:21;;;;;;;2.20;1.70;;;14.90;54.50;15.90;99884.00;;;;4967786;28;20220;-40
2021/12/26 04:45:47;;;;;;;1.80;1.70;;;14.80;54.20;15.90;99878.00;;;;4967282;28;20264;-41
2021/12/26 04:48:13;;;;;;;1.70;1.60;;;14.90;54.40;15.90;99868.00;;;;4967511;28;20691;-40
2021/12/26 04:50:39;;;;;;;1.93;1.83;;;14.80;54.20;15.90;99870.00;;;;4967683;28;20212;-40
2021/12/26 04:53:04;;;;;;;1.70;1.60;;;14.80;54.10;15.90;99875.00;;;;4967206;28;20185;-40
2021/12/26 04:55:30;;;;;;;1.60;1.50;;;14.80;54.20;15.90;99878.00;;;;4966974;28;20224;-40
2021/12/26 04:57:56;;;;;;;1.80;1.60;;;14.80;54.20;15.80;99877.00;;;;4968292;28;20177;-40
2021/12/26 05:00:24;;;;;;;1.97;1.80;;;14.80;54.30;15.80;99871.00;;;;4972102;28;20554;-40
2021/12/26 05:02:50;;;;;;;1.73;1.63;;;14.80;54.30;15.80;99862.00;;;;4969184;28;20181;-40
2021/12/26 05:05:16;;;;;;;1.70;1.60;;;14.80;54.30;15.70;99867.00;;;;4965791;28;20197;-39
2021/12/26 05:07:42;;;;;;;1.77;1.67;;;14.80;54.20;15.70;99859.00;;;;4967018;28;20181;-40
2021/12/26 05:10:10;;;;;;;1.90;1.80;;;14.80;54.10;15.70;99859.00;;;;4967448;28;20296;-40
2021/12/26 05:12:36;;;;;;;1.83;1.73;;;14.70;54.20;15.70;99864.00;;;;4967578;28;20264;-40
2021/12/26 05:15:04;;;;;;;2.27;1.70;;;14.80;54.10;15.70;99853.00;;;;4967131;28;20200;-40
2021/12/26 05:17:30;;;;;;;2.00;1.90;;;14.70;54.10;15.70;99850.00;;;;4966773;28;20251;-39
2021/12/26 05:19:56;;;;;;;1.80;1.70;;;14.70;54.10;15.70;99850.00;;;;4967148;28;20215;-40
2021/12/26 05:22:22;;;;;;;1.90;1.70;;;14.70;54.10;15.60;99851.00;;;;4967080;28;20204;-39
2021/12/26 05:24:48;;;;;;;1.73;1.63;;;14.70;54.00;15.70;99849.00;;;;4966888;28;20547;-39
2021/12/26 05:27:15;;;;;;;1.90;1.80;;;14.70;54.10;15.70;99850.00;;;;4966864;28;20200;-41
2021/12/26 05:29:41;;;;;;;1.80;1.70;;;14.70;54.00;15.60;99859.00;;;;4966734;28;20216;-40
2021/12/26 05:32:07;;;;;;;1.80;1.70;;;14.60;54.00;15.60;99876.00;;;;4966246;28;20185;-40
2021/12/26 05:34:32;;;;;;;1.90;1.80;;;14.60;54.10;15.60;99866.00;;;;4967151;28;20694;-40
2021/12/26 05:36:58;;;;;;;1.80;1.70;;;14.60;54.00;15.60;99849.00;;;;4966420;28;20251;-40
2021/12/26 05:39:24;;;;;;;1.80;1.70;;;14.60;53.90;15.60;99864.00;;;;4965537;28;20734;-40
2021/12/26 05:41:50;;;;;;;1.93;1.83;;;14.60;53.90;15.60;99859.00;;;;4966612;28;20224;-40
2021/12/26 05:44:15;;;;;;;1.90;1.80;;;14.60;53.90;15.60;99865.00;;;;4966423;28;20224;-40
2021/12/26 05:46:42;;;;;;;1.73;1.63;;;14.60;54.00;15.50;99872.00;;;;4966390;28;20212;-40
2021/12/26 05:49:07;;;;;;;1.80;1.70;;;14.60;54.00;15.50;99877.00;;;;4966665;28;20209;-40
2021/12/26 05:51:33;;;;;;;1.70;1.60;;;14.60;53.90;15.60;99862.00;;;;4968218;28;20165;-40
2021/12/26 05:53:59;;;;;;;1.90;1.80;;;14.60;53.90;15.60;99877.00;;;;4970652;28;20264;-40
2021/12/26 05:56:25;;;;;;;2.10;1.90;;;14.50;53.90;15.60;99877.00;;;;4970190;28;20205;-41
2021/12/26 05:58:50;;;;;;;2.47;1.80;;;14.50;54.10;15.60;99876.00;;;;4970349;28;20485;-40
2021/12/26 06:01:16;;;;;;;2.20;1.70;;;14.50;54.30;15.50;99871.00;;;;4970491;28;20260;-39
2021/12/26 06:03:42;;;;;;;1.93;1.80;;;14.50;54.80;15.50;99872.00;;;;4970126;28;20185;-39
2021/12/26 06:06:08;;;;;;;1.80;1.70;;;14.50;54.20;15.50;99863.00;;;;4965422;28;20204;-41
2021/12/26 06:08:33;;;;;;;2.57;1.73;;;14.50;54.10;15.50;99857.00;;;;4972339;28;20648;-39
2021/12/26 06:10:59;;;;;;;1.83;1.67;;;14.40;54.20;15.50;99854.00;;;;4968185;28;20600;-38
2021/12/26 06:13:25;;;;;;;2.23;1.80;;;14.40;54.20;15.50;99850.00;;;;4970483;28;20184;-40
2021/12/26 06:15:50;;;;;;;2.40;1.63;;;14.40;54.40;15.50;99860.00;;;;4969784;28;20193;-40
2021/12/26 06:18:16;;;;;;;1.90;1.80;;;14.40;54.60;15.50;99857.00;;;;4969818;28;20587;-40
2021/12/26 06:20:42;;;;;;;4.20;1.90;;;14.50;54.30;15.50;99869.00;;;;4969887;28;20173;-39
2021/12/26 06:23:09;;;;;;;1.87;1.77;;;14.40;54.20;15.50;99851.00;;;;4969691;28;20196;-40
2021/12/26 06:25:34;;;;;;;1.93;1.80;;;14.40;54.20;15.50;99856.00;;;;4968534;28;20552;-39
2021/12/26 06:28:01;;;;;;;3.73;1.80;;;14.40;54.20;15.40;99854.00;;;;4970323;28;20362;-39
2021/12/26 06:30:27;;;;;;;3.07;1.60;;;14.30;54.20;15.40;99849.00;;;;4969344;28;20692;-39
2021/12/26 06:32:53;;;;;;;1.90;1.80;;;14.40;54.20;15.40;99841.00;;;;4969908;28;20235;-38
2021/12/26 06:35:19;;;;;;;1.97;1.80;;;14.40;54.30;15.40;99849.00;;;;4969196;28;20283;-39
2021/12/26 06:37:44;;;;;;;2.03;1.80;;;14.30;54.20;15.20;99839.00;;;;4969286;28;20208;-39
2021/12/26 06:40:11;;;;;;;2.73;1.93;;;14.40;54.30;15.30;99846.00;;;;4969761;28;20165;-40
2021/12/26 06:42:42;;;;;;;2.17;1.97;;;14.30;54.20;15.30;99838.00;;;;4969770;28;20185;-39
2021/12/26 06:45:15;;;;;;;3.83;2.30;;;14.30;54.20;15.30;99840.00;;;;4969709;28;20208;-39
2021/12/26 06:47:42;;;;;;;2.50;1.90;;;14.30;54.20;15.30;99842.00;;;;4969196;28;20611;-40
2021/12/26 06:50:08;;;;;;;3.37;2.07;;;14.30;54.20;15.20;99848.00;;;;4969577;28;20570;-40
2021/12/26 06:52:34;;;;;;;2.67;2.20;;;14.30;54.20;15.20;99844.00;;;;4969148;28;20672;-40
2021/12/26 06:55:01;;;;;;;2.50;2.10;;;14.20;54.10;15.20;99841.00;;;;4968922;28;20251;-40
2021/12/26 06:57:26;;;;;;;2.20;2.00;;;14.20;54.10;15.20;99848.00;;;;4969412;28;20232;-40
2021/12/26 06:59:52;;;;;;;2.40;2.20;;;14.30;54.10;15.20;99848.00;;;;4969383;28;20177;-40
2021/12/26 07:02:18;;;;;;;3.03;2.20;;;14.20;53.90;15.20;99839.00;;;;4969031;28;20185;-40
2021/12/26 07:04:43;;;;;;;2.43;2.00;;;14.20;54.00;15.20;99846.00;;;;4969050;28;20695;-41
2021/12/26 07:07:09;;;;;;;2.40;2.20;;;14.20;53.90;15.10;99837.00;;;;4968844;28;20165;-39
2021/12/26 07:09:35;;;;;;;3.03;2.20;;;14.10;53.70;15.10;99844.00;;;;4969108;28;20271;-39
2021/12/26 07:12:01;;;;;;;2.50;2.30;;;14.10;53.50;15.10;99838.00;;;;4969175;28;20184;-40
2021/12/26 07:14:26;;;;;;;2.87;2.10;;;14.10;53.50;15.10;99854.00;;;;4969525;28;20177;-38
2021/12/26 07:16:52;;;;;;;2.60;2.40;;;14.10;53.60;15.10;99852.00;;;;4968876;28;20205;-39
2021/12/26 07:19:18;;;;;;;2.67;2.20;;;14.10;53.60;15.10;99851.00;;;;4968854;28;20180;-39
2021/12/26 07:21:43;;;;;;;2.23;2.07;;;14.10;53.50;15.10;99865.00;;;;4969073;28;20177;-41
2021/12/26 07:24:09;;;;;;;2.60;2.40;;;14.10;53.50;15.00;99870.00;;;;4968263;28;20575;-41
2021/12/26 07:26:35;;;;;;;2.70;2.40;;;14.10;53.50;14.70;99864.00;;;;4968744;28;20204;-39
2021/12/26 07:29:00;;;;;;;2.37;2.20;;;14.10;53.40;15.00;99862.00;;;;4968697;28;20192;-41
2021/12/26 07:31:27;;;;;;;2.40;2.20;;;14.00;53.40;15.00;99882.00;;;;4968726;28;20173;-40
2021/12/26 07:33:53;;;;;;;2.43;2.23;;;14.00;53.40;15.00;99875.00;;;;4954688;28;20205;-40
2021/12/26 07:36:19;;;;;;;2.20;2.10;;;14.00;53.30;15.00;99881.00;;;;4951315;28;20592;-40
2021/12/26 07:38:44;;;;;;;2.30;2.10;;;14.00;53.40;15.00;99886.00;;;;4948991;28;20733;-39
2021/12/26 07:41:10;;;;;;;2.43;2.30;;;14.00;53.40;15.00;99872.00;;;;4949399;29;20178;-39
2021/12/26 07:43:36;;;;;;;2.33;2.20;;;14.00;53.30;14.90;99877.00;;;;4949407;28;20816;-40
2021/12/26 07:46:02;;;;;;;2.83;2.23;;;13.90;53.30;14.90;99882.00;;;;4948674;29;20202;-39
2021/12/26 07:48:27;;;;;;;2.70;2.50;;;13.90;53.30;14.90;99874.00;;;;4948518;29;20593;-39
2021/12/26 07:50:53;;;;;;;2.50;2.30;;;13.90;53.20;14.90;99868.00;;;;4948037;28;20216;-39
2021/12/26 07:53:19;;;;;;;2.40;2.20;;;13.90;53.30;14.90;99869.00;;;;4948852;29;20644;-40
2021/12/26 07:55:44;;;;;;;2.40;2.20;;;13.90;53.20;14.90;99875.00;;;;4948611;29;20213;-39
2021/12/26 07:58:10;;;;;;;2.20;2.10;;;13.80;53.70;14.90;99865.00;;;;4949195;29;20188;-40
2021/12/26 08:00:36;;;;;;;2.60;2.40;;;13.90;53.20;14.90;99858.00;;;;4949012;29;20166;-41
2021/12/26 08:03:02;;;;;;;2.60;2.40;;;13.90;53.10;14.90;99860.00;;;;4949190;28;20181;-42
2021/12/26 08:05:28;;;;;;;2.70;2.50;;;13.90;53.10;14.80;99866.00;;;;4948500;29;20565;-39
2021/12/26 08:07:53;;;;;;;2.50;2.30;;;13.80;53.00;14.80;99772.00;;;;4948687;29;20219;-40
2021/12/26 08:10:19;;;;;;;2.50;2.30;;;13.80;53.00;14.80;99860.00;;;;4949166;28;20235;-41
2021/12/26 08:12:45;;;;;;;2.50;2.30;;;13.80;53.10;14.80;99870.00;;;;4948782;28;20645;-40
2021/12/26 08:15:10;;;;;;;2.43;2.23;;;13.80;53.00;14.80;99869.00;;;;4947597;28;20240;-41
2021/12/26 08:17:38;;;;;;;2.60;2.40;;;13.80;53.70;14.80;99873.00;;;;4948638;28;20170;-40
2021/12/26 08:20:05;;;;;;;2.53;2.33;;;13.80;53.00;14.80;99870.00;;;;4948676;29;20178;-40
2021/12/26 08:22:31;;;;;;;2.70;2.50;;;13.80;52.90;14.80;99867.00;;;;4948255;29;20280;-40
2021/12/26 08:24:56;;;;;;;2.97;2.77;;;13.70;52.90;14.70;99866.00;;;;4947238;29;20292;-40
2021/12/26 08:27:22;;;;;;;3.00;2.70;;;13.70;52.90;14.70;99861.00;;;;4947933;29;20174;-39
2021/12/26 08:29:48;;;;;;;2.70;2.50;;;13.70;52.80;14.70;99854.00;;;;4950595;28;20212;-39
2021/12/26 08:32:16;;;;;;;2.40;2.23;;;13.70;52.70;14.70;99860.00;;;;4967904;28;20165;-39
2021/12/26 08:34:43;;;;;;;2.60;2.40;;;13.70;52.80;14.70;99857.00;;;;4967603;28;20267;-41
2021/12/26 08:37:09;;;;;;;2.80;2.60;;;13.70;52.70;14.70;99867.00;;;;4967265;28;20196;-40
2021/12/26 08:39:37;;;;;;;2.60;2.40;;;13.70;52.80;14.70;99864.00;;;;4971643;28;20199;-40
2021/12/26 08:42:04;;;;;;;2.20;2.10;;;13.70;52.80;14.70;99867.00;;;;4972667;28;20209;-41
2021/12/26 08:44:30;;;;;;;2.60;2.40;;;13.70;52.80;14.60;99865.00;;;;4968067;28;20725;-40
2021/12/26 08:46:56;;;;;;;2.60;2.30;;;13.70;52.80;14.60;99870.00;;;;4967128;28;20189;-40
2021/12/26 08:49:22;;;;;;;2.60;2.40;;;13.60;52.70;14.60;99857.00;;;;4967239;28;20208;-41
2021/12/26 08:51:48;;;;;;;2.60;2.40;;;13.60;52.60;14.60;99863.00;;;;4967052;28;20192;-40
2021/12/26 08:54:13;;;;;;;2.63;2.43;;;13.60;52.60;14.60;99858.00;;;;4967275;28;20173;-39
2021/12/26 08:56:39;;;;;;;2.63;2.43;;;13.60;52.60;14.60;99863.00;;;;4966890;28;20212;-40
2021/12/26 08:59:05;;;;;;;2.80;2.60;;;13.60;52.60;14.60;99874.00;;;;4961091;28;20201;-40
2021/12/26 09:01:31;;;;;;;2.60;2.40;;;13.60;52.70;14.60;99853.00;;;;4955969;28;20186;-39
2021/12/26 09:03:57;;;;;;;2.70;2.50;;;13.60;52.70;14.60;99865.00;;;;4947390;28;20253;-39
2021/12/26 09:06:23;;;;;;;4.53;2.87;;;13.60;52.60;14.60;99873.00;;;;4947589;28;20336;-40
2021/12/26 09:08:48;;;;;;;5.97;2.40;;;13.60;52.50;14.60;99867.00;;;;4947531;28;20173;-39
2021/12/26 09:11:16;;;;;;;5.30;2.70;;;13.70;52.90;14.60;99874.00;;;;4947350;29;20268;-39
2021/12/26 09:13:42;;;;;;;4.57;2.47;;;13.80;53.00;14.70;99877.00;;;;4947721;28;20228;-41
2021/12/26 09:16:08;;;;;;;4.47;2.50;;;14.00;53.70;14.80;99873.00;;;;4947501;28;20245;-40
2021/12/26 09:18:34;;;;;;;4.10;2.60;;;14.30;52.90;14.90;99870.00;;;;4947391;28;20173;-40
2021/12/26 09:20:59;;;;;;;10.70;2.70;;;14.60;52.80;15.10;99873.00;;;;4966493;28;20182;-40
2021/12/26 09:23:25;;;;;;;5.23;2.53;;;14.80;52.50;15.20;99879.00;;;;4966677;28;20188;-40
2021/12/26 09:25:51;;;;;;;6.60;2.40;;;15.10;52.30;15.40;99884.00;;;;4965378;28;20196;-40
2021/12/26 09:28:16;;;;;;;5.77;2.40;;;15.40;52.70;15.50;99889.00;;;;4966373;28;20442;-40
2021/12/26 09:30:42;;;;;;;5.43;2.43;;;15.60;51.70;15.70;99883.00;;;;4966969;28;20193;-41
2021/12/26 09:33:08;;;;;;;4.93;2.40;;;15.90;51.80;15.90;99881.00;;;;4966311;28;20197;-39
2021/12/26 09:35:34;;;;;;;2.93;2.20;;;16.10;51.20;16.10;99883.00;;;;4966340;28;20596;-40
2021/12/26 09:38:00;;;;;;;5.03;2.20;;;16.20;51.10;16.20;99882.00;;;;4953558;28;20205;-39
2021/12/26 09:40:26;;;;;;;6.37;2.63;;;16.30;51.20;16.30;99877.00;;;;4946958;29;20665;-39
2021/12/26 09:42:52;;;;;;;6.87;2.43;;;16.40;51.10;16.40;99886.00;;;;4947212;28;20169;-39
2021/12/26 09:45:18;;;;;;;7.20;2.30;;;16.50;51.30;16.60;99878.00;;;;4950749;28;20207;-40
2021/12/26 09:47:45;;;;;;;6.83;2.37;;;16.70;51.60;16.70;99882.00;;;;4971530;28;20192;-39
2021/12/26 09:50:12;;;;;;;7.33;2.70;;;16.80;51.60;16.80;99875.00;;;;4968965;28;20197;-39
2021/12/26 09:52:45;;;;;;;3.70;2.40;;;16.80;51.70;16.90;99874.00;;;;4967920;28;20184;-40
2021/12/26 09:55:12;;;;;;;7.03;2.53;;;16.90;51.70;17.00;99876.00;;;;4966283;28;20853;-39
2021/12/26 09:57:37;;;;;;;4.47;2.20;;;17.00;51.50;17.00;99865.00;;;;4960917;28;20320;-39
2021/12/26 10:00:33;;;;;;;2.53;2.30;;;17.10;51.80;17.10;99862.00;;;;4968807;28;20248;-40
2021/12/26 10:03:18;;;;;;;2.57;2.23;;;17.20;51.80;17.20;99861.00;;;;4968804;28;20173;-40
2021/12/26 10:06:11;;;;;;;2.53;2.00;;;17.20;51.90;17.30;99870.00;;;;4967943;28;20679;-40
2021/12/26 10:09:05;;;;;;;3.57;2.30;;;17.20;51.70;17.40;99858.00;;;;4969109;28;20166;-39
2021/12/26 10:11:35;;;;;;;6.23;2.40;;;17.20;51.80;17.40;99852.00;;;;4967865;28;20193;-40
2021/12/26 10:14:09;;;;;;;3.27;2.30;;;17.20;52.00;17.40;99855.00;;;;4968480;28;20663;-40
2021/12/26 10:16:38;;;;;;;3.33;2.20;;;17.20;52.30;17.50;99868.00;;;;4969585;28;20201;-40
2021/12/26 10:19:04;;;;;;;3.33;2.40;;;17.20;52.80;17.50;99859.00;;;;4968321;28;20200;-40
2021/12/26 10:21:44;;;;;;;4.63;2.20;;;17.20;52.90;17.50;99867.00;;;;4967472;28;20553;-42
2021/12/26 10:24:25;;;;;;;3.20;2.37;;;17.10;52.90;17.50;99860.00;;;;4967831;28;20161;-40
2021/12/26 10:26:58;;;;;;;3.17;2.70;;;17.10;52.90;17.50;99860.00;;;;4967706;28;20243;-40
2021/12/26 10:29:38;;;;;;;6.23;2.40;;;17.10;52.80;17.50;99857.00;;;;4967637;28;20225;-40
2021/12/26 10:32:13;;;;;;;5.67;2.40;;;17.00;52.70;17.50;99846.00;;;;4969128;28;20646;-40
2021/12/26 10:35:01;;;;;;;2.40;2.20;;;17.00;52.80;17.50;99844.00;;;;4969302;28;20279;-39
2021/12/26 10:37:33;;;;;;;2.40;2.20;;;16.90;52.50;17.50;99831.00;;;;4969911;28;20185;-39
2021/12/26 10:40:02;;;;;;;3.00;2.30;;;16.90;52.50;17.40;99833.00;;;;4972162;28;20165;-39
2021/12/26 10:42:34;;;;;;;2.37;2.17;;;16.90;52.60;17.40;99834.00;;;;4972070;28;20706;-39
2021/12/26 10:45:10;;;;;;;2.73;2.17;;;16.80;52.60;17.40;99832.00;;;;4972217;28;20197;-40
2021/12/26 10:47:38;;;;;;;2.83;2.10;;;16.80;52.60;17.40;99828.00;;;;4972183;28;20431;-39
2021/12/26 10:50:15;;;;;;;5.73;2.30;;;16.70;52.90;17.40;99827.00;;;;4971780;28;20185;-40
2021/12/26 10:52:49;;;;;;;3.70;2.13;;;16.70;53.30;17.40;99824.00;;;;4972546;28;20165;-41
2021/12/26 10:55:20;;;;;;;2.30;2.10;;;16.70;53.30;17.30;99818.00;;;;4972078;28;20200;-40
2021/12/26 10:57:50;;;;;;;2.10;1.90;;;16.60;53.50;17.30;99817.00;;;;4972047;28;20153;-40
2021/12/26 11:00:20;;;;;;;2.40;2.20;;;16.60;53.60;17.30;99822.00;;;;4972028;28;20162;-40